sensor_id;sensor_type;location;lat;lon;timestamp;P1;durP1;ratioP1;P2;durP2;ratioP2
3549;SDS011;45572;48.804;8.330;2022-07-26T00:01:00;2.70;;;2.00;;
3549;SDS011;45572;48.804;8.330;2022-07-26T00:03:28;2.30;;;1.33;;
3549;SDS011;45572;48.804;8.330;2022-07-26T00:05:56;9.00;;;2.10;;
3549;SDS011;45572;48.804;8.330;2022-07-26T00:08:24;1.83;;;1.13;;
3549;SDS011;45572;48.804;8.330;2022-07-26T00:10:53;4.10;;;1.47;;
3549;SDS011;45572;48.804;8.330;2022-07-26T00:13:21;4.80;;;1.50;;
3549;SDS011;45572;48.804;8.330;2022-07-26T00:15:53;2.63;;;1.53;;
3549;SDS011;45572;48.804;8.330;2022-07-26T00:18:21;2.10;;;1.30;;
3549;SDS011;45572;48.804;8.330;2022-07-26T00:20:49;13.90;;;1.90;;
3549;SDS011;45572;48.804;8.330;2022-07-26T00:23:16;4.40;;;1.30;;
3549;SDS011;45572;48.804;8.330;2022-07-26T00:25:45;2.20;;;1.40;;
3549;SDS011;45572;48.804;8.330;2022-07-26T00:28:14;3.63;;;1.57;;
3549;SDS011;45572;48.804;8.330;2022-07-26T00:30:42;2.33;;;1.27;;
3549;SDS011;45572;48.804;8.330;2022-07-26T00:33:11;5.77;;;1.33;;
3549;SDS011;45572;48.804;8.330;2022-07-26T00:35:39;3.40;;;1.10;;
3549;SDS011;45572;48.804;8.330;2022-07-26T00:38:07;2.43;;;1.23;;
3549;SDS011;45572;48.804;8.330;2022-07-26T00:40:35;1.97;;;1.20;;
3549;SDS011;45572;48.804;8.330;2022-07-26T00:43:03;2.03;;;1.30;;
3549;SDS011;45572;48.804;8.330;2022-07-26T00:45:33;3.77;;;1.50;;
3549;SDS011;45572;48.804;8.330;2022-07-26T00:48:01;2.27;;;1.23;;
3549;SDS011;45572;48.804;8.330;2022-07-26T00:50:29;2.53;;;1.53;;
3549;SDS011;45572;48.804;8.330;2022-07-26T00:52:57;3.03;;;1.07;;
3549;SDS011;45572;48.804;8.330;2022-07-26T00:55:25;2.70;;;1.10;;
3549;SDS011;45572;48.804;8.330;2022-07-26T00:57:54;2.80;;;1.23;;
3549;SDS011;45572;48.804;8.330;2022-07-26T01:00:22;3.83;;;1.10;;
3549;SDS011;45572;48.804;8.330;2022-07-26T01:02:54;1.80;;;1.17;;
3549;SDS011;45572;48.804;8.330;2022-07-26T01:05:23;3.93;;;1.37;;
3549;SDS011;45572;48.804;8.330;2022-07-26T01:07:51;1.30;;;1.00;;
3549;SDS011;45572;48.804;8.330;2022-07-26T01:10:20;1.33;;;1.00;;
3549;SDS011;45572;48.804;8.330;2022-07-26T01:12:47;1.20;;;1.10;;
3549;SDS011;45572;48.804;8.330;2022-07-26T01:15:15;3.40;;;0.97;;
3549;SDS011;45572;48.804;8.330;2022-07-26T01:17:43;3.10;;;1.10;;
3549;SDS011;45572;48.804;8.330;2022-07-26T01:20:13;2.33;;;1.03;;
3549;SDS011;45572;48.804;8.330;2022-07-26T01:22:43;3.70;;;1.10;;
3549;SDS011;45572;48.804;8.330;2022-07-26T01:25:11;2.90;;;1.40;;
3549;SDS011;45572;48.804;8.330;2022-07-26T01:27:39;5.03;;;1.30;;
3549;SDS011;45572;48.804;8.330;2022-07-26T01:30:07;3.00;;;1.03;;
3549;SDS011;45572;48.804;8.330;2022-07-26T01:32:37;2.27;;;1.37;;
3549;SDS011;45572;48.804;8.330;2022-07-26T01:35:05;3.03;;;1.10;;
3549;SDS011;45572;48.804;8.330;2022-07-26T01:37:34;2.13;;;1.03;;
3549;SDS011;45572;48.804;8.330;2022-07-26T01:40:04;6.63;;;1.00;;
3549;SDS011;45572;48.804;8.330;2022-07-26T01:42:33;1.47;;;0.97;;
3549;SDS011;45572;48.804;8.330;2022-07-26T01:45:01;2.73;;;0.93;;
3549;SDS011;45572;48.804;8.330;2022-07-26T01:47:29;2.20;;;1.23;;
3549;SDS011;45572;48.804;8.330;2022-07-26T01:49:57;1.93;;;1.20;;
3549;SDS011;45572;48.804;8.330;2022-07-26T01:52:25;1.33;;;1.07;;
3549;SDS011;45572;48.804;8.330;2022-07-26T01:54:53;2.83;;;1.37;;
3549;SDS011;45572;48.804;8.330;2022-07-26T01:57:23;2.23;;;1.40;;
3549;SDS011;45572;48.804;8.330;2022-07-26T01:59:51;4.20;;;1.43;;
3549;SDS011;45572;48.804;8.330;2022-07-26T02:02:20;3.93;;;1.57;;
3549;SDS011;45572;48.804;8.330;2022-07-26T02:04:48;1.83;;;1.13;;
3549;SDS011;45572;48.804;8.330;2022-07-26T02:07:31;2.30;;;1.30;;
3549;SDS011;45572;48.804;8.330;2022-07-26T02:10:04;2.03;;;1.17;;
3549;SDS011;45572;48.804;8.330;2022-07-26T02:12:34;3.30;;;1.47;;
3549;SDS011;45572;48.804;8.330;2022-07-26T02:15:03;2.30;;;1.20;;
3549;SDS011;45572;48.804;8.330;2022-07-26T02:17:32;3.00;;;1.57;;
3549;SDS011;45572;48.804;8.330;2022-07-26T02:19:59;3.33;;;1.27;;
3549;SDS011;45572;48.804;8.330;2022-07-26T02:22:27;1.90;;;1.50;;
3549;SDS011;45572;48.804;8.330;2022-07-26T02:24:55;1.70;;;1.20;;
3549;SDS011;45572;48.804;8.330;2022-07-26T02:27:30;1.63;;;1.07;;
3549;SDS011;45572;48.804;8.330;2022-07-26T02:29:59;2.30;;;1.30;;
3549;SDS011;45572;48.804;8.330;2022-07-26T02:32:27;1.47;;;1.10;;
3549;SDS011;45572;48.804;8.330;2022-07-26T02:34:55;3.27;;;1.87;;
3549;SDS011;45572;48.804;8.330;2022-07-26T02:37:22;1.70;;;1.30;;
3549;SDS011;45572;48.804;8.330;2022-07-26T02:39:50;2.80;;;1.40;;
3549;SDS011;45572;48.804;8.330;2022-07-26T02:42:18;2.90;;;1.03;;
3549;SDS011;45572;48.804;8.330;2022-07-26T02:44:46;1.40;;;1.10;;
3549;SDS011;45572;48.804;8.330;2022-07-26T02:47:15;1.57;;;1.20;;
3549;SDS011;45572;48.804;8.330;2022-07-26T02:49:42;1.87;;;1.07;;
3549;SDS011;45572;48.804;8.330;2022-07-26T02:52:10;2.20;;;1.20;;
3549;SDS011;45572;48.804;8.330;2022-07-26T02:54:38;2.33;;;1.33;;
3549;SDS011;45572;48.804;8.330;2022-07-26T02:57:06;1.90;;;1.27;;
3549;SDS011;45572;48.804;8.330;2022-07-26T02:59:34;2.20;;;1.27;;
3549;SDS011;45572;48.804;8.330;2022-07-26T03:02:02;3.43;;;1.10;;
3549;SDS011;45572;48.804;8.330;2022-07-26T03:04:31;3.80;;;1.50;;
3549;SDS011;45572;48.804;8.330;2022-07-26T03:06:59;2.13;;;1.50;;
3549;SDS011;45572;48.804;8.330;2022-07-26T03:09:27;2.77;;;1.30;;
3549;SDS011;45572;48.804;8.330;2022-07-26T03:11:55;2.77;;;1.40;;
3549;SDS011;45572;48.804;8.330;2022-07-26T03:14:23;3.33;;;1.60;;
3549;SDS011;45572;48.804;8.330;2022-07-26T03:16:51;2.20;;;1.13;;
3549;SDS011;45572;48.804;8.330;2022-07-26T03:19:18;2.20;;;1.20;;
3549;SDS011;45572;48.804;8.330;2022-07-26T03:21:47;4.47;;;2.10;;
3549;SDS011;45572;48.804;8.330;2022-07-26T03:24:15;2.93;;;1.00;;
3549;SDS011;45572;48.804;8.330;2022-07-26T03:26:43;2.80;;;1.20;;
3549;SDS011;45572;48.804;8.330;2022-07-26T03:29:11;5.23;;;1.90;;
3549;SDS011;45572;48.804;8.330;2022-07-26T03:31:39;10.33;;;1.67;;
3549;SDS011;45572;48.804;8.330;2022-07-26T03:34:07;2.40;;;1.60;;
3549;SDS011;45572;48.804;8.330;2022-07-26T03:36:36;4.40;;;1.30;;
3549;SDS011;45572;48.804;8.330;2022-07-26T03:39:05;3.10;;;1.50;;
3549;SDS011;45572;48.804;8.330;2022-07-26T03:41:33;3.20;;;1.13;;
3549;SDS011;45572;48.804;8.330;2022-07-26T03:44:01;1.30;;;1.10;;
3549;SDS011;45572;48.804;8.330;2022-07-26T03:46:30;4.60;;;1.30;;
3549;SDS011;45572;48.804;8.330;2022-07-26T03:48:59;4.70;;;1.17;;
3549;SDS011;45572;48.804;8.330;2022-07-26T03:51:27;7.50;;;1.40;;
3549;SDS011;45572;48.804;8.330;2022-07-26T03:53:55;4.47;;;1.47;;
3549;SDS011;45572;48.804;8.330;2022-07-26T03:56:24;2.17;;;1.63;;
3549;SDS011;45572;48.804;8.330;2022-07-26T03:58:54;3.77;;;1.03;;
3549;SDS011;45572;48.804;8.330;2022-07-26T04:01:23;2.30;;;1.93;;
3549;SDS011;45572;48.804;8.330;2022-07-26T04:03:51;2.03;;;1.53;;
3549;SDS011;45572;48.804;8.330;2022-07-26T04:06:34;2.53;;;1.33;;
3549;SDS011;45572;48.804;8.330;2022-07-26T04:09:03;3.33;;;2.07;;
3549;SDS011;45572;48.804;8.330;2022-07-26T04:11:34;2.17;;;1.53;;
3549;SDS011;45572;48.804;8.330;2022-07-26T04:14:02;1.97;;;1.30;;
3549;SDS011;45572;48.804;8.330;2022-07-26T04:16:31;4.10;;;1.40;;
3549;SDS011;45572;48.804;8.330;2022-07-26T04:18:59;2.00;;;1.40;;
3549;SDS011;45572;48.804;8.330;2022-07-26T04:21:27;2.43;;;1.70;;
3549;SDS011;45572;48.804;8.330;2022-07-26T04:23:55;3.40;;;1.53;;
3549;SDS011;45572;48.804;8.330;2022-07-26T04:26:22;2.57;;;1.97;;
3549;SDS011;45572;48.804;8.330;2022-07-26T04:28:54;3.70;;;1.63;;
3549;SDS011;45572;48.804;8.330;2022-07-26T04:31:22;2.53;;;1.57;;
3549;SDS011;45572;48.804;8.330;2022-07-26T04:33:50;4.90;;;2.10;;
3549;SDS011;45572;48.804;8.330;2022-07-26T04:36:18;3.90;;;1.53;;
3549;SDS011;45572;48.804;8.330;2022-07-26T04:38:46;3.90;;;1.47;;
3549;SDS011;45572;48.804;8.330;2022-07-26T04:41:14;3.63;;;1.37;;
3549;SDS011;45572;48.804;8.330;2022-07-26T04:43:41;2.07;;;1.43;;
3549;SDS011;45572;48.804;8.330;2022-07-26T04:46:10;1.80;;;1.40;;
3549;SDS011;45572;48.804;8.330;2022-07-26T04:48:38;5.60;;;2.00;;
3549;SDS011;45572;48.804;8.330;2022-07-26T04:51:06;2.60;;;1.50;;
3549;SDS011;45572;48.804;8.330;2022-07-26T04:53:34;5.63;;;1.63;;
3549;SDS011;45572;48.804;8.330;2022-07-26T04:56:03;2.07;;;1.63;;
3549;SDS011;45572;48.804;8.330;2022-07-26T04:58:31;3.47;;;1.30;;
3549;SDS011;45572;48.804;8.330;2022-07-26T05:00:59;2.10;;;1.33;;
3549;SDS011;45572;48.804;8.330;2022-07-26T05:03:37;8.27;;;1.67;;
3549;SDS011;45572;48.804;8.330;2022-07-26T05:06:05;6.37;;;1.80;;
3549;SDS011;45572;48.804;8.330;2022-07-26T05:08:33;3.30;;;1.90;;
3549;SDS011;45572;48.804;8.330;2022-07-26T05:11:01;4.87;;;1.73;;
3549;SDS011;45572;48.804;8.330;2022-07-26T05:13:29;4.93;;;1.57;;
3549;SDS011;45572;48.804;8.330;2022-07-26T05:15:57;2.07;;;1.50;;
3549;SDS011;45572;48.804;8.330;2022-07-26T05:18:27;3.40;;;1.30;;
3549;SDS011;45572;48.804;8.330;2022-07-26T05:21:16;2.77;;;1.23;;
3549;SDS011;45572;48.804;8.330;2022-07-26T05:23:48;4.57;;;1.70;;
3549;SDS011;45572;48.804;8.330;2022-07-26T05:26:15;3.30;;;1.50;;
3549;SDS011;45572;48.804;8.330;2022-07-26T05:28:43;2.37;;;1.53;;
3549;SDS011;45572;48.804;8.330;2022-07-26T05:31:11;3.40;;;1.47;;
3549;SDS011;45572;48.804;8.330;2022-07-26T05:33:39;2.40;;;1.20;;
3549;SDS011;45572;48.804;8.330;2022-07-26T05:36:07;5.97;;;1.17;;
3549;SDS011;45572;48.804;8.330;2022-07-26T05:38:36;6.63;;;0.93;;
3549;SDS011;45572;48.804;8.330;2022-07-26T05:41:05;2.30;;;1.03;;
3549;SDS011;45572;48.804;8.330;2022-07-26T05:43:33;4.33;;;1.17;;
3549;SDS011;45572;48.804;8.330;2022-07-26T05:46:07;2.87;;;1.40;;
3549;SDS011;45572;48.804;8.330;2022-07-26T05:48:36;4.00;;;1.63;;
3549;SDS011;45572;48.804;8.330;2022-07-26T05:51:04;3.07;;;1.00;;
3549;SDS011;45572;48.804;8.330;2022-07-26T05:53:32;2.80;;;1.10;;
3549;SDS011;45572;48.804;8.330;2022-07-26T05:56:01;3.23;;;1.47;;
3549;SDS011;45572;48.804;8.330;2022-07-26T05:58:29;1.33;;;0.87;;
3549;SDS011;45572;48.804;8.330;2022-07-26T06:00:57;1.80;;;1.10;;
3549;SDS011;45572;48.804;8.330;2022-07-26T06:03:25;2.87;;;1.00;;
3549;SDS011;45572;48.804;8.330;2022-07-26T06:05:55;8.57;;;1.63;;
3549;SDS011;45572;48.804;8.330;2022-07-26T06:08:26;2.00;;;1.13;;
3549;SDS011;45572;48.804;8.330;2022-07-26T06:10:54;2.13;;;1.00;;
3549;SDS011;45572;48.804;8.330;2022-07-26T06:13:24;3.07;;;0.87;;
3549;SDS011;45572;48.804;8.330;2022-07-26T06:15:51;2.73;;;1.00;;
3549;SDS011;45572;48.804;8.330;2022-07-26T06:18:19;1.83;;;0.80;;
3549;SDS011;45572;48.804;8.330;2022-07-26T06:20:48;3.47;;;0.77;;
3549;SDS011;45572;48.804;8.330;2022-07-26T06:23:16;2.57;;;0.83;;
3549;SDS011;45572;48.804;8.330;2022-07-26T06:25:59;3.70;;;0.83;;
3549;SDS011;45572;48.804;8.330;2022-07-26T06:28:28;2.07;;;1.10;;
3549;SDS011;45572;48.804;8.330;2022-07-26T06:30:56;1.40;;;0.70;;
3549;SDS011;45572;48.804;8.330;2022-07-26T06:33:24;1.40;;;1.00;;
3549;SDS011;45572;48.804;8.330;2022-07-26T06:35:52;2.70;;;0.90;;
3549;SDS011;45572;48.804;8.330;2022-07-26T06:38:20;6.67;;;1.20;;
3549;SDS011;45572;48.804;8.330;2022-07-26T06:40:48;5.20;;;0.93;;
3549;SDS011;45572;48.804;8.330;2022-07-26T06:43:16;2.30;;;1.13;;
3549;SDS011;45572;48.804;8.330;2022-07-26T06:45:47;1.63;;;0.97;;
3549;SDS011;45572;48.804;8.330;2022-07-26T06:48:15;4.17;;;0.60;;
3549;SDS011;45572;48.804;8.330;2022-07-26T06:50:43;5.13;;;1.43;;
3549;SDS011;45572;48.804;8.330;2022-07-26T06:53:11;1.67;;;0.80;;
3549;SDS011;45572;48.804;8.330;2022-07-26T06:55:39;1.97;;;0.90;;
3549;SDS011;45572;48.804;8.330;2022-07-26T06:58:09;1.77;;;0.80;;
3549;SDS011;45572;48.804;8.330;2022-07-26T07:00:37;2.53;;;0.73;;
3549;SDS011;45572;48.804;8.330;2022-07-26T07:03:06;1.30;;;0.80;;
3549;SDS011;45572;48.804;8.330;2022-07-26T07:05:34;2.50;;;0.80;;
3549;SDS011;45572;48.804;8.330;2022-07-26T07:08:04;1.33;;;0.60;;
3549;SDS011;45572;48.804;8.330;2022-07-26T07:10:32;2.63;;;0.60;;
3549;SDS011;45572;48.804;8.330;2022-07-26T07:13:01;2.50;;;1.07;;
3549;SDS011;45572;48.804;8.330;2022-07-26T07:15:29;3.17;;;0.77;;
3549;SDS011;45572;48.804;8.330;2022-07-26T07:18:00;1.50;;;0.77;;
3549;SDS011;45572;48.804;8.330;2022-07-26T07:20:30;2.70;;;1.00;;
3549;SDS011;45572;48.804;8.330;2022-07-26T07:22:59;3.90;;;0.97;;
3549;SDS011;45572;48.804;8.330;2022-07-26T07:25:27;1.77;;;0.60;;
3549;SDS011;45572;48.804;8.330;2022-07-26T07:27:58;3.70;;;0.97;;
3549;SDS011;45572;48.804;8.330;2022-07-26T07:30:26;1.20;;;0.70;;
3549;SDS011;45572;48.804;8.330;2022-07-26T07:32:54;4.73;;;0.77;;
3549;SDS011;45572;48.804;8.330;2022-07-26T07:35:22;1.23;;;0.80;;
3549;SDS011;45572;48.804;8.330;2022-07-26T07:37:58;1.27;;;0.60;;
3549;SDS011;45572;48.804;8.330;2022-07-26T07:40:27;5.30;;;1.00;;
3549;SDS011;45572;48.804;8.330;2022-07-26T07:42:55;1.40;;;0.77;;
3549;SDS011;45572;48.804;8.330;2022-07-26T07:45:23;3.67;;;0.70;;
3549;SDS011;45572;48.804;8.330;2022-07-26T07:47:51;2.73;;;0.80;;
3549;SDS011;45572;48.804;8.330;2022-07-26T07:50:19;2.83;;;1.03;;
3549;SDS011;45572;48.804;8.330;2022-07-26T07:52:52;2.97;;;0.50;;
3549;SDS011;45572;48.804;8.330;2022-07-26T07:55:24;2.53;;;0.60;;
3549;SDS011;45572;48.804;8.330;2022-07-26T07:58:11;3.50;;;0.67;;
3549;SDS011;45572;48.804;8.330;2022-07-26T08:00:42;1.60;;;0.60;;
3549;SDS011;45572;48.804;8.330;2022-07-26T08:03:12;1.23;;;0.70;;
3549;SDS011;45572;48.804;8.330;2022-07-26T08:05:44;2.50;;;0.67;;
3549;SDS011;45572;48.804;8.330;2022-07-26T08:08:16;1.37;;;0.63;;
3549;SDS011;45572;48.804;8.330;2022-07-26T08:10:49;2.63;;;0.70;;
3549;SDS011;45572;48.804;8.330;2022-07-26T08:13:19;3.07;;;0.80;;
3549;SDS011;45572;48.804;8.330;2022-07-26T08:15:47;0.90;;;0.50;;
3549;SDS011;45572;48.804;8.330;2022-07-26T08:18:15;1.30;;;0.60;;
3549;SDS011;45572;48.804;8.330;2022-07-26T08:20:47;1.33;;;0.60;;
3549;SDS011;45572;48.804;8.330;2022-07-26T08:23:17;2.13;;;0.80;;
3549;SDS011;45572;48.804;8.330;2022-07-26T08:25:45;2.03;;;0.70;;
3549;SDS011;45572;48.804;8.330;2022-07-26T08:28:27;3.53;;;0.60;;
3549;SDS011;45572;48.804;8.330;2022-07-26T08:31:12;1.63;;;1.13;;
3549;SDS011;45572;48.804;8.330;2022-07-26T08:33:40;3.93;;;0.90;;
3549;SDS011;45572;48.804;8.330;2022-07-26T08:36:12;0.90;;;0.57;;
3549;SDS011;45572;48.804;8.330;2022-07-26T08:38:40;1.00;;;0.40;;
3549;SDS011;45572;48.804;8.330;2022-07-26T08:41:08;3.43;;;0.57;;
3549;SDS011;45572;48.804;8.330;2022-07-26T08:43:37;1.90;;;0.70;;
3549;SDS011;45572;48.804;8.330;2022-07-26T08:46:18;1.90;;;0.50;;
3549;SDS011;45572;48.804;8.330;2022-07-26T08:48:53;1.13;;;0.53;;
3549;SDS011;45572;48.804;8.330;2022-07-26T08:51:22;1.50;;;0.60;;
3549;SDS011;45572;48.804;8.330;2022-07-26T08:53:55;2.30;;;0.50;;
3549;SDS011;45572;48.804;8.330;2022-07-26T08:56:31;0.90;;;0.60;;
3549;SDS011;45572;48.804;8.330;2022-07-26T08:59:03;0.93;;;0.60;;
3549;SDS011;45572;48.804;8.330;2022-07-26T09:01:33;0.80;;;0.60;;
3549;SDS011;45572;48.804;8.330;2022-07-26T09:04:16;4.00;;;0.67;;
3549;SDS011;45572;48.804;8.330;2022-07-26T09:06:58;1.70;;;0.60;;
3549;SDS011;45572;48.804;8.330;2022-07-26T09:09:28;2.20;;;0.50;;
3549;SDS011;45572;48.804;8.330;2022-07-26T09:11:56;1.53;;;0.80;;
3549;SDS011;45572;48.804;8.330;2022-07-26T09:14:36;8.90;;;0.80;;
3549;SDS011;45572;48.804;8.330;2022-07-26T09:17:05;1.63;;;0.70;;
3549;SDS011;45572;48.804;8.330;2022-07-26T09:19:33;1.50;;;0.60;;
3549;SDS011;45572;48.804;8.330;2022-07-26T09:22:05;2.53;;;0.57;;
3549;SDS011;45572;48.804;8.330;2022-07-26T09:24:38;2.03;;;0.60;;
3549;SDS011;45572;48.804;8.330;2022-07-26T09:27:08;3.57;;;0.50;;
3549;SDS011;45572;48.804;8.330;2022-07-26T09:29:43;1.37;;;0.57;;
3549;SDS011;45572;48.804;8.330;2022-07-26T09:32:13;1.63;;;0.63;;
3549;SDS011;45572;48.804;8.330;2022-07-26T09:34:44;3.80;;;0.60;;
3549;SDS011;45572;48.804;8.330;2022-07-26T09:37:31;1.90;;;0.60;;
3549;SDS011;45572;48.804;8.330;2022-07-26T09:40:03;2.27;;;0.83;;
3549;SDS011;45572;48.804;8.330;2022-07-26T09:42:32;2.80;;;0.90;;
3549;SDS011;45572;48.804;8.330;2022-07-26T09:45:13;2.10;;;0.70;;
3549;SDS011;45572;48.804;8.330;2022-07-26T09:47:43;2.80;;;0.70;;
3549;SDS011;45572;48.804;8.330;2022-07-26T09:50:12;0.83;;;0.50;;
3549;SDS011;45572;48.804;8.330;2022-07-26T09:55:33;1.83;;;0.53;;
3549;SDS011;45572;48.804;8.330;2022-07-26T09:58:10;2.33;;;0.60;;
3549;SDS011;45572;48.804;8.330;2022-07-26T10:00:41;4.20;;;0.70;;
3549;SDS011;45572;48.804;8.330;2022-07-26T10:03:10;1.73;;;0.60;;
3549;SDS011;45572;48.804;8.330;2022-07-26T10:05:39;1.37;;;0.50;;
3549;SDS011;45572;48.804;8.330;2022-07-26T10:08:07;2.00;;;0.60;;
3549;SDS011;45572;48.804;8.330;2022-07-26T10:10:38;1.00;;;0.50;;
3549;SDS011;45572;48.804;8.330;2022-07-26T10:13:10;0.80;;;0.40;;
3549;SDS011;45572;48.804;8.330;2022-07-26T10:15:39;1.50;;;0.50;;
3549;SDS011;45572;48.804;8.330;2022-07-26T10:21:16;0.93;;;0.50;;
3549;SDS011;45572;48.804;8.330;2022-07-26T10:23:47;1.17;;;0.50;;
3549;SDS011;45572;48.804;8.330;2022-07-26T10:34:40;0.83;;;0.40;;
3549;SDS011;45572;48.804;8.330;2022-07-26T10:37:09;1.17;;;0.50;;
3549;SDS011;45572;48.804;8.330;2022-07-26T10:39:46;0.90;;;0.43;;
3549;SDS011;45572;48.804;8.330;2022-07-26T10:42:14;1.90;;;0.40;;
3549;SDS011;45572;48.804;8.330;2022-07-26T10:44:48;0.90;;;0.40;;
3549;SDS011;45572;48.804;8.330;2022-07-26T10:47:20;0.90;;;0.50;;
3549;SDS011;45572;48.804;8.330;2022-07-26T10:49:55;2.40;;;0.40;;
3549;SDS011;45572;48.804;8.330;2022-07-26T10:52:25;0.70;;;0.50;;
3549;SDS011;45572;48.804;8.330;2022-07-26T10:55:03;7.40;;;0.50;;
3549;SDS011;45572;48.804;8.330;2022-07-26T10:57:33;2.30;;;0.50;;
3549;SDS011;45572;48.804;8.330;2022-07-26T11:00:06;4.53;;;0.50;;
3549;SDS011;45572;48.804;8.330;2022-07-26T11:02:39;0.60;;;0.47;;
3549;SDS011;45572;48.804;8.330;2022-07-26T11:05:09;0.73;;;0.50;;
3549;SDS011;45572;48.804;8.330;2022-07-26T11:07:47;1.97;;;0.50;;
3549;SDS011;45572;48.804;8.330;2022-07-26T11:10:20;1.07;;;0.43;;
3549;SDS011;45572;48.804;8.330;2022-07-26T11:12:57;0.63;;;0.40;;
3549;SDS011;45572;48.804;8.330;2022-07-26T11:15:27;1.27;;;0.40;;
3549;SDS011;45572;48.804;8.330;2022-07-26T11:20:42;1.00;;;0.40;;
3549;SDS011;45572;48.804;8.330;2022-07-26T11:25:59;2.10;;;0.50;;
3549;SDS011;45572;48.804;8.330;2022-07-26T11:28:27;4.70;;;0.60;;
3549;SDS011;45572;48.804;8.330;2022-07-26T11:30:56;1.10;;;0.63;;
3549;SDS011;45572;48.804;8.330;2022-07-26T11:33:35;0.97;;;0.60;;
3549;SDS011;45572;48.804;8.330;2022-07-26T11:36:03;2.07;;;0.50;;
3549;SDS011;45572;48.804;8.330;2022-07-26T11:41:17;3.00;;;1.03;;
3549;SDS011;45572;48.804;8.330;2022-07-26T11:44:00;2.60;;;0.70;;
3549;SDS011;45572;48.804;8.330;2022-07-26T11:46:36;1.23;;;0.50;;
3549;SDS011;45572;48.804;8.330;2022-07-26T11:49:14;1.83;;;0.50;;
3549;SDS011;45572;48.804;8.330;2022-07-26T11:51:48;0.90;;;0.40;;
3549;SDS011;45572;48.804;8.330;2022-07-26T11:54:17;1.40;;;0.60;;
3549;SDS011;45572;48.804;8.330;2022-07-26T11:56:49;0.70;;;0.60;;
3549;SDS011;45572;48.804;8.330;2022-07-26T11:59:19;1.17;;;0.50;;
3549;SDS011;45572;48.804;8.330;2022-07-26T12:01:48;0.60;;;0.40;;
3549;SDS011;45572;48.804;8.330;2022-07-26T12:04:19;0.60;;;0.40;;
3549;SDS011;45572;48.804;8.330;2022-07-26T12:06:52;0.80;;;0.40;;
3549;SDS011;45572;48.804;8.330;2022-07-26T12:09:26;0.90;;;0.43;;
3549;SDS011;45572;48.804;8.330;2022-07-26T12:11:59;2.00;;;0.70;;
3549;SDS011;45572;48.804;8.330;2022-07-26T12:14:29;2.13;;;0.50;;
3549;SDS011;45572;48.804;8.330;2022-07-26T12:17:08;1.13;;;0.53;;
3549;SDS011;45572;48.804;8.330;2022-07-26T12:19:38;1.00;;;0.53;;
3549;SDS011;45572;48.804;8.330;2022-07-26T12:22:07;1.10;;;0.40;;
3549;SDS011;45572;48.804;8.330;2022-07-26T12:24:40;1.43;;;0.60;;
3549;SDS011;45572;48.804;8.330;2022-07-26T12:27:11;0.50;;;0.40;;
3549;SDS011;45572;48.804;8.330;2022-07-26T12:29:43;2.10;;;0.60;;
3549;SDS011;45572;48.804;8.330;2022-07-26T12:32:14;1.13;;;0.60;;
3549;SDS011;45572;48.804;8.330;2022-07-26T12:37:29;0.70;;;0.50;;
3549;SDS011;45572;48.804;8.330;2022-07-26T12:40:07;0.70;;;0.43;;
3549;SDS011;45572;48.804;8.330;2022-07-26T12:42:38;1.77;;;0.50;;
3549;SDS011;45572;48.804;8.330;2022-07-26T12:45:07;1.37;;;0.60;;
3549;SDS011;45572;48.804;8.330;2022-07-26T12:47:38;1.10;;;0.50;;
3549;SDS011;45572;48.804;8.330;2022-07-26T12:50:09;0.90;;;0.50;;
3549;SDS011;45572;48.804;8.330;2022-07-26T12:52:37;1.23;;;0.67;;
3549;SDS011;45572;48.804;8.330;2022-07-26T12:55:06;0.90;;;0.50;;
3549;SDS011;45572;48.804;8.330;2022-07-26T12:57:36;0.97;;;0.50;;
3549;SDS011;45572;48.804;8.330;2022-07-26T13:00:13;0.90;;;0.50;;
3549;SDS011;45572;48.804;8.330;2022-07-26T13:02:43;1.30;;;0.67;;
3549;SDS011;45572;48.804;8.330;2022-07-26T13:05:12;0.97;;;0.50;;
3549;SDS011;45572;48.804;8.330;2022-07-26T13:07:46;1.10;;;1.00;;
3549;SDS011;45572;48.804;8.330;2022-07-26T13:10:15;1.23;;;0.70;;
3549;SDS011;45572;48.804;8.330;2022-07-26T13:13:01;1.13;;;0.70;;
3549;SDS011;45572;48.804;8.330;2022-07-26T13:15:29;1.30;;;1.00;;
3549;SDS011;45572;48.804;8.330;2022-07-26T13:18:06;0.80;;;0.50;;
3549;SDS011;45572;48.804;8.330;2022-07-26T13:20:36;4.23;;;0.60;;
3549;SDS011;45572;48.804;8.330;2022-07-26T13:23:05;0.80;;;0.50;;
3549;SDS011;45572;48.804;8.330;2022-07-26T13:25:39;1.53;;;0.70;;
3549;SDS011;45572;48.804;8.330;2022-07-26T13:28:08;1.53;;;0.50;;
3549;SDS011;45572;48.804;8.330;2022-07-26T13:30:36;1.13;;;0.77;;
3549;SDS011;45572;48.804;8.330;2022-07-26T13:33:08;0.60;;;0.40;;
3549;SDS011;45572;48.804;8.330;2022-07-26T13:35:38;1.40;;;0.63;;
3549;SDS011;45572;48.804;8.330;2022-07-26T13:38:15;0.80;;;0.50;;
3549;SDS011;45572;48.804;8.330;2022-07-26T13:40:44;1.07;;;0.63;;
3549;SDS011;45572;48.804;8.330;2022-07-26T13:43:12;1.30;;;0.60;;
3549;SDS011;45572;48.804;8.330;2022-07-26T13:45:40;2.20;;;0.63;;
3549;SDS011;45572;48.804;8.330;2022-07-26T13:48:09;1.60;;;0.70;;
3549;SDS011;45572;48.804;8.330;2022-07-26T13:50:38;2.87;;;0.50;;
3549;SDS011;45572;48.804;8.330;2022-07-26T13:53:07;2.73;;;0.80;;
3549;SDS011;45572;48.804;8.330;2022-07-26T13:55:35;1.70;;;0.63;;
3549;SDS011;45572;48.804;8.330;2022-07-26T13:58:04;3.90;;;0.70;;
3549;SDS011;45572;48.804;8.330;2022-07-26T14:00:35;0.80;;;0.50;;
3549;SDS011;45572;48.804;8.330;2022-07-26T14:03:03;1.23;;;0.50;;
3549;SDS011;45572;48.804;8.330;2022-07-26T14:05:31;1.20;;;0.50;;
3549;SDS011;45572;48.804;8.330;2022-07-26T14:08:00;2.40;;;0.73;;
3549;SDS011;45572;48.804;8.330;2022-07-26T14:10:28;2.00;;;0.60;;
3549;SDS011;45572;48.804;8.330;2022-07-26T14:12:56;1.10;;;0.60;;
3549;SDS011;45572;48.804;8.330;2022-07-26T14:15:24;1.67;;;0.87;;
3549;SDS011;45572;48.804;8.330;2022-07-26T14:17:52;1.37;;;0.90;;
3549;SDS011;45572;48.804;8.330;2022-07-26T14:20:20;2.00;;;0.60;;
3549;SDS011;45572;48.804;8.330;2022-07-26T14:22:48;2.53;;;0.60;;
3549;SDS011;45572;48.804;8.330;2022-07-26T14:25:20;3.10;;;0.67;;
3549;SDS011;45572;48.804;8.330;2022-07-26T14:27:49;4.13;;;2.60;;
3549;SDS011;45572;48.804;8.330;2022-07-26T14:30:18;1.60;;;0.70;;
3549;SDS011;45572;48.804;8.330;2022-07-26T14:32:46;3.63;;;0.60;;
3549;SDS011;45572;48.804;8.330;2022-07-26T14:35:14;2.00;;;0.70;;
3549;SDS011;45572;48.804;8.330;2022-07-26T14:37:43;2.63;;;0.60;;
3549;SDS011;45572;48.804;8.330;2022-07-26T14:40:12;0.90;;;0.60;;
3549;SDS011;45572;48.804;8.330;2022-07-26T14:42:43;3.10;;;0.80;;
3549;SDS011;45572;48.804;8.330;2022-07-26T14:45:11;2.97;;;0.90;;
3549;SDS011;45572;48.804;8.330;2022-07-26T14:47:40;6.43;;;0.60;;
3549;SDS011;45572;48.804;8.330;2022-07-26T14:50:08;1.10;;;0.60;;
3549;SDS011;45572;48.804;8.330;2022-07-26T14:52:37;2.60;;;0.60;;
3549;SDS011;45572;48.804;8.330;2022-07-26T14:55:07;1.90;;;0.60;;
3549;SDS011;45572;48.804;8.330;2022-07-26T14:57:36;3.17;;;0.60;;
3549;SDS011;45572;48.804;8.330;2022-07-26T15:00:07;1.23;;;0.60;;
3549;SDS011;45572;48.804;8.330;2022-07-26T15:02:37;1.83;;;0.60;;
3549;SDS011;45572;48.804;8.330;2022-07-26T15:05:06;1.17;;;0.60;;
3549;SDS011;45572;48.804;8.330;2022-07-26T15:07:35;1.60;;;0.60;;
3549;SDS011;45572;48.804;8.330;2022-07-26T15:10:04;4.03;;;1.00;;
3549;SDS011;45572;48.804;8.330;2022-07-26T15:12:33;1.40;;;0.60;;
3549;SDS011;45572;48.804;8.330;2022-07-26T15:15:01;2.40;;;0.70;;
3549;SDS011;45572;48.804;8.330;2022-07-26T15:17:31;0.90;;;0.50;;
3549;SDS011;45572;48.804;8.330;2022-07-26T15:20:00;1.10;;;0.70;;
3549;SDS011;45572;48.804;8.330;2022-07-26T15:22:28;1.60;;;0.83;;
3549;SDS011;45572;48.804;8.330;2022-07-26T15:24:56;1.90;;;0.50;;
3549;SDS011;45572;48.804;8.330;2022-07-26T15:27:24;1.93;;;0.73;;
3549;SDS011;45572;48.804;8.330;2022-07-26T15:29:51;1.07;;;0.60;;
3549;SDS011;45572;48.804;8.330;2022-07-26T15:32:27;5.40;;;0.73;;
3549;SDS011;45572;48.804;8.330;2022-07-26T15:34:57;2.00;;;0.70;;
3549;SDS011;45572;48.804;8.330;2022-07-26T15:37:25;16.40;;;2.90;;
3549;SDS011;45572;48.804;8.330;2022-07-26T15:39:53;3.03;;;0.70;;
3549;SDS011;45572;48.804;8.330;2022-07-26T15:42:21;1.20;;;0.60;;